sensor_id;sensor_type;location;lat;lon;timestamp;temperature;humidity
75091;DHT22;63674;48.048;8.306;2023-06-22T00:00:41;15.30;99.90
75091;DHT22;63674;48.048;8.306;2023-06-22T00:03:10;15.20;99.90
75091;DHT22;63674;48.048;8.306;2023-06-22T00:05:39;15.20;99.90
75091;DHT22;63674;48.048;8.306;2023-06-22T00:08:09;15.30;99.90
75091;DHT22;63674;48.048;8.306;2023-06-22T00:10:38;15.20;99.90
75091;DHT22;63674;48.048;8.306;2023-06-22T00:13:07;15.20;99.90
75091;DHT22;63674;48.048;8.306;2023-06-22T00:15:37;15.10;99.90
75091;DHT22;63674;48.048;8.306;2023-06-22T00:18:07;15.10;99.90
75091;DHT22;63674;48.048;8.306;2023-06-22T00:20:37;15.00;99.90
75091;DHT22;63674;48.048;8.306;2023-06-22T00:23:07;15.00;99.90
75091;DHT22;63674;48.048;8.306;2023-06-22T00:25:37;14.90;99.90
75091;DHT22;63674;48.048;8.306;2023-06-22T00:28:07;15.00;99.90
75091;DHT22;63674;48.048;8.306;2023-06-22T00:30:36;15.00;99.90
75091;DHT22;63674;48.048;8.306;2023-06-22T00:33:04;15.10;99.90
75091;DHT22;63674;48.048;8.306;2023-06-22T00:35:34;15.10;99.90
75091;DHT22;63674;48.048;8.306;2023-06-22T00:38:03;15.00;99.90
75091;DHT22;63674;48.048;8.306;2023-06-22T00:40:33;15.00;99.90
75091;DHT22;63674;48.048;8.306;2023-06-22T00:43:02;14.90;99.90
75091;DHT22;63674;48.048;8.306;2023-06-22T00:45:31;15.00;99.90
75091;DHT22;63674;48.048;8.306;2023-06-22T00:48:00;15.10;99.90
75091;DHT22;63674;48.048;8.306;2023-06-22T00:50:31;15.20;99.90
75091;DHT22;63674;48.048;8.306;2023-06-22T00:53:05;15.30;99.90
75091;DHT22;63674;48.048;8.306;2023-06-22T00:55:39;15.20;99.90
75091;DHT22;63674;48.048;8.306;2023-06-22T00:58:10;15.20;99.90
75091;DHT22;63674;48.048;8.306;2023-06-22T01:00:40;15.10;99.90
75091;DHT22;63674;48.048;8.306;2023-06-22T01:03:09;15.20;99.90
75091;DHT22;63674;48.048;8.306;2023-06-22T01:05:39;15.30;99.90
75091;DHT22;63674;48.048;8.306;2023-06-22T01:08:29;15.20;99.90
75091;DHT22;63674;48.048;8.306;2023-06-22T01:11:10;15.20;99.90
75091;DHT22;63674;48.048;8.306;2023-06-22T01:13:50;15.20;99.90
75091;DHT22;63674;48.048;8.306;2023-06-22T01:16:27;15.10;99.90
75091;DHT22;63674;48.048;8.306;2023-06-22T01:19:00;15.00;99.90
75091;DHT22;63674;48.048;8.306;2023-06-22T01:21:32;15.00;99.90
75091;DHT22;63674;48.048;8.306;2023-06-22T01:24:11;14.90;99.90
75091;DHT22;63674;48.048;8.306;2023-06-22T01:26:54;14.90;99.90
75091;DHT22;63674;48.048;8.306;2023-06-22T01:29:29;14.80;99.90
75091;DHT22;63674;48.048;8.306;2023-06-22T01:31:59;14.70;99.90
75091;DHT22;63674;48.048;8.306;2023-06-22T01:34:29;14.70;99.90
75091;DHT22;63674;48.048;8.306;2023-06-22T01:37:00;14.60;99.90
75091;DHT22;63674;48.048;8.306;2023-06-22T01:39:29;14.60;99.90
75091;DHT22;63674;48.048;8.306;2023-06-22T01:41:59;14.50;99.90
75091;DHT22;63674;48.048;8.306;2023-06-22T01:44:30;14.50;99.90
75091;DHT22;63674;48.048;8.306;2023-06-22T01:46:59;14.40;99.90
75091;DHT22;63674;48.048;8.306;2023-06-22T01:49:28;14.30;99.90
75091;DHT22;63674;48.048;8.306;2023-06-22T01:51:57;14.40;99.90
75091;DHT22;63674;48.048;8.306;2023-06-22T01:54:26;14.40;99.90
75091;DHT22;63674;48.048;8.306;2023-06-22T01:56:55;14.30;99.90
75091;DHT22;63674;48.048;8.306;2023-06-22T01:59:26;14.40;99.90
75091;DHT22;63674;48.048;8.306;2023-06-22T02:02:04;14.40;99.90
75091;DHT22;63674;48.048;8.306;2023-06-22T02:04:37;14.40;99.90
75091;DHT22;63674;48.048;8.306;2023-06-22T02:07:13;14.40;99.90
75091;DHT22;63674;48.048;8.306;2023-06-22T02:09:45;14.40;99.90
75091;DHT22;63674;48.048;8.306;2023-06-22T02:12:17;14.40;99.90
75091;DHT22;63674;48.048;8.306;2023-06-22T02:14:48;14.40;99.90
75091;DHT22;63674;48.048;8.306;2023-06-22T02:17:18;14.40;99.90
75091;DHT22;63674;48.048;8.306;2023-06-22T02:19:46;14.40;99.90
75091;DHT22;63674;48.048;8.306;2023-06-22T02:22:16;14.30;99.90
75091;DHT22;63674;48.048;8.306;2023-06-22T02:24:44;14.30;99.90
75091;DHT22;63674;48.048;8.306;2023-06-22T02:27:13;14.30;99.90
75091;DHT22;63674;48.048;8.306;2023-06-22T02:29:42;14.20;99.90
75091;DHT22;63674;48.048;8.306;2023-06-22T02:32:12;14.20;99.90
75091;DHT22;63674;48.048;8.306;2023-06-22T02:34:42;14.10;99.90
75091;DHT22;63674;48.048;8.306;2023-06-22T02:37:14;14.10;99.90
75091;DHT22;63674;48.048;8.306;2023-06-22T02:39:43;14.10;99.90
75091;DHT22;63674;48.048;8.306;2023-06-22T02:42:12;14.10;99.90
75091;DHT22;63674;48.048;8.306;2023-06-22T02:44:41;14.10;99.90
75091;DHT22;63674;48.048;8.306;2023-06-22T02:47:09;14.10;99.90
75091;DHT22;63674;48.048;8.306;2023-06-22T02:49:39;14.10;99.90
75091;DHT22;63674;48.048;8.306;2023-06-22T02:52:09;14.10;99.90
75091;DHT22;63674;48.048;8.306;2023-06-22T02:54:37;14.10;99.90
75091;DHT22;63674;48.048;8.306;2023-06-22T02:57:06;14.00;99.90
75091;DHT22;63674;48.048;8.306;2023-06-22T02:59:41;14.10;99.90
75091;DHT22;63674;48.048;8.306;2023-06-22T03:02:10;14.20;99.90
75091;DHT22;63674;48.048;8.306;2023-06-22T03:04:40;14.20;99.90
75091;DHT22;63674;48.048;8.306;2023-06-22T03:07:09;14.20;99.90
75091;DHT22;63674;48.048;8.306;2023-06-22T03:09:38;14.20;99.90
75091;DHT22;63674;48.048;8.306;2023-06-22T03:12:07;14.20;99.90
75091;DHT22;63674;48.048;8.306;2023-06-22T03:14:36;14.20;99.90
75091;DHT22;63674;48.048;8.306;2023-06-22T03:17:05;14.20;99.90
75091;DHT22;63674;48.048;8.306;2023-06-22T03:19:34;14.10;99.90
75091;DHT22;63674;48.048;8.306;2023-06-22T03:22:04;14.10;99.90
75091;DHT22;63674;48.048;8.306;2023-06-22T03:24:34;14.00;99.90
75091;DHT22;63674;48.048;8.306;2023-06-22T03:27:04;14.00;99.90
75091;DHT22;63674;48.048;8.306;2023-06-22T03:29:33;14.00;99.90
75091;DHT22;63674;48.048;8.306;2023-06-22T03:32:03;13.90;99.90
75091;DHT22;63674;48.048;8.306;2023-06-22T03:34:33;13.90;99.90
75091;DHT22;63674;48.048;8.306;2023-06-22T03:37:05;13.80;99.90
75091;DHT22;63674;48.048;8.306;2023-06-22T03:39:34;13.90;99.90
75091;DHT22;63674;48.048;8.306;2023-06-22T03:42:03;13.90;99.90
75091;DHT22;63674;48.048;8.306;2023-06-22T03:44:32;13.90;99.90
75091;DHT22;63674;48.048;8.306;2023-06-22T03:47:03;13.90;99.90
75091;DHT22;63674;48.048;8.306;2023-06-22T03:49:34;13.90;99.90
75091;DHT22;63674;48.048;8.306;2023-06-22T03:52:05;13.90;99.90
75091;DHT22;63674;48.048;8.306;2023-06-22T03:54:34;13.90;99.90
75091;DHT22;63674;48.048;8.306;2023-06-22T03:57:02;13.90;99.90
75091;DHT22;63674;48.048;8.306;2023-06-22T03:59:31;13.80;99.90
75091;DHT22;63674;48.048;8.306;2023-06-22T04:02:00;13.80;99.90
75091;DHT22;63674;48.048;8.306;2023-06-22T04:04:29;13.80;99.90
75091;DHT22;63674;48.048;8.306;2023-06-22T04:06:57;13.90;99.90
75091;DHT22;63674;48.048;8.306;2023-06-22T04:09:27;14.00;99.90
75091;DHT22;63674;48.048;8.306;2023-06-22T04:11:56;14.00;99.90
75091;DHT22;63674;48.048;8.306;2023-06-22T04:14:24;14.00;99.90
75091;DHT22;63674;48.048;8.306;2023-06-22T04:16:53;14.10;99.90
75091;DHT22;63674;48.048;8.306;2023-06-22T04:19:22;14.10;99.90
75091;DHT22;63674;48.048;8.306;2023-06-22T04:21:50;14.10;99.90
75091;DHT22;63674;48.048;8.306;2023-06-22T04:24:19;14.00;99.90
75091;DHT22;63674;48.048;8.306;2023-06-22T04:26:49;14.10;99.90
75091;DHT22;63674;48.048;8.306;2023-06-22T04:29:21;14.10;99.90
75091;DHT22;63674;48.048;8.306;2023-06-22T04:31:56;14.10;99.90
75091;DHT22;63674;48.048;8.306;2023-06-22T04:34:25;14.10;99.90
75091;DHT22;63674;48.048;8.306;2023-06-22T04:36:54;14.10;99.90
75091;DHT22;63674;48.048;8.306;2023-06-22T04:39:23;14.10;99.90
75091;DHT22;63674;48.048;8.306;2023-06-22T04:41:53;14.10;99.90
75091;DHT22;63674;48.048;8.306;2023-06-22T04:44:27;14.10;99.90
75091;DHT22;63674;48.048;8.306;2023-06-22T04:46:57;14.20;99.90
75091;DHT22;63674;48.048;8.306;2023-06-22T04:49:30;14.20;99.90
75091;DHT22;63674;48.048;8.306;2023-06-22T04:52:02;14.30;99.90
75091;DHT22;63674;48.048;8.306;2023-06-22T04:54:32;14.20;99.90
75091;DHT22;63674;48.048;8.306;2023-06-22T04:57:05;14.20;99.90
75091;DHT22;63674;48.048;8.306;2023-06-22T04:59:38;14.20;99.90
75091;DHT22;63674;48.048;8.306;2023-06-22T05:02:09;14.20;99.90
75091;DHT22;63674;48.048;8.306;2023-06-22T05:04:38;14.20;99.90
75091;DHT22;63674;48.048;8.306;2023-06-22T05:07:07;14.20;99.90
75091;DHT22;63674;48.048;8.306;2023-06-22T05:09:36;14.20;99.90
75091;DHT22;63674;48.048;8.306;2023-06-22T05:12:07;14.30;99.90
75091;DHT22;63674;48.048;8.306;2023-06-22T05:14:37;14.40;99.90
75091;DHT22;63674;48.048;8.306;2023-06-22T05:17:06;14.50;99.90
75091;DHT22;63674;48.048;8.306;2023-06-22T05:19:42;14.60;99.90
75091;DHT22;63674;48.048;8.306;2023-06-22T05:22:15;14.60;99.90
75091;DHT22;63674;48.048;8.306;2023-06-22T05:24:44;14.60;99.90
75091;DHT22;63674;48.048;8.306;2023-06-22T05:27:14;14.70;99.90
75091;DHT22;63674;48.048;8.306;2023-06-22T05:29:43;14.80;99.90
75091;DHT22;63674;48.048;8.306;2023-06-22T05:32:11;14.80;99.90
75091;DHT22;63674;48.048;8.306;2023-06-22T05:34:40;14.90;99.90
75091;DHT22;63674;48.048;8.306;2023-06-22T05:37:08;15.00;99.90
75091;DHT22;63674;48.048;8.306;2023-06-22T05:39:37;15.10;99.90
75091;DHT22;63674;48.048;8.306;2023-06-22T05:42:06;15.10;99.90
75091;DHT22;63674;48.048;8.306;2023-06-22T05:44:38;15.20;99.90
75091;DHT22;63674;48.048;8.306;2023-06-22T05:47:08;15.30;99.90
75091;DHT22;63674;48.048;8.306;2023-06-22T05:49:37;15.40;99.90
75091;DHT22;63674;48.048;8.306;2023-06-22T05:52:05;15.50;99.90
75091;DHT22;63674;48.048;8.306;2023-06-22T05:54:35;15.60;99.90
75091;DHT22;63674;48.048;8.306;2023-06-22T05:57:06;15.70;99.90
75091;DHT22;63674;48.048;8.306;2023-06-22T05:59:38;15.80;99.90
75091;DHT22;63674;48.048;8.306;2023-06-22T06:02:09;16.00;99.90
75091;DHT22;63674;48.048;8.306;2023-06-22T06:04:38;16.10;99.90
75091;DHT22;63674;48.048;8.306;2023-06-22T06:07:07;16.20;99.90
75091;DHT22;63674;48.048;8.306;2023-06-22T06:09:35;16.30;99.90
75091;DHT22;63674;48.048;8.306;2023-06-22T06:12:05;16.50;99.90
75091;DHT22;63674;48.048;8.306;2023-06-22T06:14:34;16.70;99.90
75091;DHT22;63674;48.048;8.306;2023-06-22T06:17:04;16.90;99.90
75091;DHT22;63674;48.048;8.306;2023-06-22T06:19:32;17.10;99.90
75091;DHT22;63674;48.048;8.306;2023-06-22T06:22:01;17.30;99.90
75091;DHT22;63674;48.048;8.306;2023-06-22T06:24:29;17.60;99.90
75091;DHT22;63674;48.048;8.306;2023-06-22T06:26:58;17.80;99.90
75091;DHT22;63674;48.048;8.306;2023-06-22T06:29:26;18.10;99.90
75091;DHT22;63674;48.048;8.306;2023-06-22T06:31:55;18.40;99.90
75091;DHT22;63674;48.048;8.306;2023-06-22T06:34:25;18.80;99.90
75091;DHT22;63674;48.048;8.306;2023-06-22T06:36:54;19.20;99.90
75091;DHT22;63674;48.048;8.306;2023-06-22T06:39:22;19.50;99.90
75091;DHT22;63674;48.048;8.306;2023-06-22T06:41:51;19.70;99.90
75091;DHT22;63674;48.048;8.306;2023-06-22T06:44:20;19.90;99.90
75091;DHT22;63674;48.048;8.306;2023-06-22T06:46:48;20.10;99.90
75091;DHT22;63674;48.048;8.306;2023-06-22T06:49:18;20.40;99.90
75091;DHT22;63674;48.048;8.306;2023-06-22T06:51:48;20.80;99.90
75091;DHT22;63674;48.048;8.306;2023-06-22T06:54:17;21.30;99.90
75091;DHT22;63674;48.048;8.306;2023-06-22T06:56:47;21.40;99.90
75091;DHT22;63674;48.048;8.306;2023-06-22T06:59:17;21.50;99.90
75091;DHT22;63674;48.048;8.306;2023-06-22T07:01:45;21.60;99.90
75091;DHT22;63674;48.048;8.306;2023-06-22T07:04:15;21.90;99.90
75091;DHT22;63674;48.048;8.306;2023-06-22T07:06:45;22.40;99.90
75091;DHT22;63674;48.048;8.306;2023-06-22T07:09:15;22.60;99.90
75091;DHT22;63674;48.048;8.306;2023-06-22T07:11:45;22.50;99.90
75091;DHT22;63674;48.048;8.306;2023-06-22T07:14:14;22.10;99.90
75091;DHT22;63674;48.048;8.306;2023-06-22T07:16:42;22.40;99.90
75091;DHT22;63674;48.048;8.306;2023-06-22T07:19:11;22.50;99.90
75091;DHT22;63674;48.048;8.306;2023-06-22T07:21:40;22.40;99.90
75091;DHT22;63674;48.048;8.306;2023-06-22T07:24:09;22.20;99.90
75091;DHT22;63674;48.048;8.306;2023-06-22T07:26:39;22.20;99.90
75091;DHT22;63674;48.048;8.306;2023-06-22T07:29:13;22.10;99.90
75091;DHT22;63674;48.048;8.306;2023-06-22T07:31:42;22.10;99.90
75091;DHT22;63674;48.048;8.306;2023-06-22T07:34:11;21.80;99.90
75091;DHT22;63674;48.048;8.306;2023-06-22T07:36:39;21.70;99.90
75091;DHT22;63674;48.048;8.306;2023-06-22T07:39:08;21.40;99.90
75091;DHT22;63674;48.048;8.306;2023-06-22T07:41:38;21.10;99.90
75091;DHT22;63674;48.048;8.306;2023-06-22T07:44:07;21.80;99.90
75091;DHT22;63674;48.048;8.306;2023-06-22T07:46:36;21.80;99.90
75091;DHT22;63674;48.048;8.306;2023-06-22T07:49:04;22.30;99.90
75091;DHT22;63674;48.048;8.306;2023-06-22T07:51:35;22.30;99.90
75091;DHT22;63674;48.048;8.306;2023-06-22T07:54:24;22.30;99.90
75091;DHT22;63674;48.048;8.306;2023-06-22T07:56:54;22.20;99.90
75091;DHT22;63674;48.048;8.306;2023-06-22T07:59:23;22.20;99.90
75091;DHT22;63674;48.048;8.306;2023-06-22T08:01:51;22.30;99.90
75091;DHT22;63674;48.048;8.306;2023-06-22T08:04:20;22.60;99.90
75091;DHT22;63674;48.048;8.306;2023-06-22T08:06:48;22.90;99.90
75091;DHT22;63674;48.048;8.306;2023-06-22T08:09:17;23.50;99.90
75091;DHT22;63674;48.048;8.306;2023-06-22T08:11:45;23.40;99.90
75091;DHT22;63674;48.048;8.306;2023-06-22T08:14:16;23.60;99.90
75091;DHT22;63674;48.048;8.306;2023-06-22T08:16:44;24.10;99.90
75091;DHT22;63674;48.048;8.306;2023-06-22T08:19:13;24.50;99.90
75091;DHT22;63674;48.048;8.306;2023-06-22T08:21:42;24.90;99.90
75091;DHT22;63674;48.048;8.306;2023-06-22T08:24:10;25.30;99.90
75091;DHT22;63674;48.048;8.306;2023-06-22T08:26:39;25.60;99.90
75091;DHT22;63674;48.048;8.306;2023-06-22T08:29:08;26.00;99.90
75091;DHT22;63674;48.048;8.306;2023-06-22T08:31:39;26.40;99.90
75091;DHT22;63674;48.048;8.306;2023-06-22T08:34:07;26.70;99.90
75091;DHT22;63674;48.048;8.306;2023-06-22T08:36:36;26.60;99.90
75091;DHT22;63674;48.048;8.306;2023-06-22T08:39:08;26.40;99.90
75091;DHT22;63674;48.048;8.306;2023-06-22T08:41:37;26.30;99.90
75091;DHT22;63674;48.048;8.306;2023-06-22T08:44:05;26.60;99.90
75091;DHT22;63674;48.048;8.306;2023-06-22T08:46:34;26.70;99.90
75091;DHT22;63674;48.048;8.306;2023-06-22T08:49:04;27.00;99.90
75091;DHT22;63674;48.048;8.306;2023-06-22T08:51:33;27.60;99.90
75091;DHT22;63674;48.048;8.306;2023-06-22T08:54:01;28.20;95.40
75091;DHT22;63674;48.048;8.306;2023-06-22T08:56:30;28.20;93.20
75091;DHT22;63674;48.048;8.306;2023-06-22T08:58:58;28.20;99.90
75091;DHT22;63674;48.048;8.306;2023-06-22T09:01:27;27.70;99.90
75091;DHT22;63674;48.048;8.306;2023-06-22T09:03:56;27.00;99.90
75091;DHT22;63674;48.048;8.306;2023-06-22T09:06:27;26.70;99.90
75091;DHT22;63674;48.048;8.306;2023-06-22T09:08:58;26.50;96.60
75091;DHT22;63674;48.048;8.306;2023-06-22T09:11:27;26.70;99.90
75091;DHT22;63674;48.048;8.306;2023-06-22T09:13:56;26.70;99.90
75091;DHT22;63674;48.048;8.306;2023-06-22T09:16:24;26.70;99.90
75091;DHT22;63674;48.048;8.306;2023-06-22T09:18:53;26.90;99.90
75091;DHT22;63674;48.048;8.306;2023-06-22T09:21:22;27.20;99.90
75091;DHT22;63674;48.048;8.306;2023-06-22T09:23:52;27.70;99.30
75091;DHT22;63674;48.048;8.306;2023-06-22T09:26:21;28.10;95.40
75091;DHT22;63674;48.048;8.306;2023-06-22T09:28:51;28.30;95.00
75091;DHT22;63674;48.048;8.306;2023-06-22T09:31:19;28.50;89.60
75091;DHT22;63674;48.048;8.306;2023-06-22T09:33:53;28.90;70.30
75091;DHT22;63674;48.048;8.306;2023-06-22T09:36:22;29.00;75.40
75091;DHT22;63674;48.048;8.306;2023-06-22T09:38:52;29.00;44.40
75091;DHT22;63674;48.048;8.306;2023-06-22T09:41:22;29.20;59.00
75091;DHT22;63674;48.048;8.306;2023-06-22T09:43:52;29.20;49.50
75091;DHT22;63674;48.048;8.306;2023-06-22T09:46:23;29.30;50.30
75091;DHT22;63674;48.048;8.306;2023-06-22T09:48:52;29.40;42.10
75091;DHT22;63674;48.048;8.306;2023-06-22T09:51:20;29.40;46.00
75091;DHT22;63674;48.048;8.306;2023-06-22T09:53:52;29.30;48.60
75091;DHT22;63674;48.048;8.306;2023-06-22T09:56:22;29.20;43.30
75091;DHT22;63674;48.048;8.306;2023-06-22T09:58:52;29.10;50.80
75091;DHT22;63674;48.048;8.306;2023-06-22T10:01:31;29.10;55.50
75091;DHT22;63674;48.048;8.306;2023-06-22T10:04:00;29.20;45.00
75091;DHT22;63674;48.048;8.306;2023-06-22T10:06:30;29.40;47.90
75091;DHT22;63674;48.048;8.306;2023-06-22T10:09:00;29.50;42.60
75091;DHT22;63674;48.048;8.306;2023-06-22T10:11:29;29.20;38.70
75091;DHT22;63674;48.048;8.306;2023-06-22T10:13:58;29.10;45.80
75091;DHT22;63674;48.048;8.306;2023-06-22T10:16:30;28.90;55.80
75091;DHT22;63674;48.048;8.306;2023-06-22T10:18:59;28.80;41.00
75091;DHT22;63674;48.048;8.306;2023-06-22T10:21:28;28.80;64.60
75091;DHT22;63674;48.048;8.306;2023-06-22T10:23:57;28.70;79.00
75091;DHT22;63674;48.048;8.306;2023-06-22T10:26:27;28.60;85.90
75091;DHT22;63674;48.048;8.306;2023-06-22T10:28:56;28.70;83.60
75091;DHT22;63674;48.048;8.306;2023-06-22T10:31:42;28.80;93.50
75091;DHT22;63674;48.048;8.306;2023-06-22T10:34:10;29.10;93.50
75091;DHT22;63674;48.048;8.306;2023-06-22T10:36:39;29.10;93.50
75091;DHT22;63674;48.048;8.306;2023-06-22T10:39:07;28.90;85.10
75091;DHT22;63674;48.048;8.306;2023-06-22T10:41:38;28.80;90.30
75091;DHT22;63674;48.048;8.306;2023-06-22T10:44:06;28.90;95.00
75091;DHT22;63674;48.048;8.306;2023-06-22T10:46:35;28.90;95.40
75091;DHT22;63674;48.048;8.306;2023-06-22T10:49:03;28.90;95.20
75091;DHT22;63674;48.048;8.306;2023-06-22T10:51:32;29.10;90.60
75091;DHT22;63674;48.048;8.306;2023-06-22T10:54:00;29.10;91.90
75091;DHT22;63674;48.048;8.306;2023-06-22T10:56:31;29.10;92.60
75091;DHT22;63674;48.048;8.306;2023-06-22T10:59:02;29.10;91.60
75091;DHT22;63674;48.048;8.306;2023-06-22T11:01:30;29.10;91.00
75091;DHT22;63674;48.048;8.306;2023-06-22T11:04:03;28.80;91.80
75091;DHT22;63674;48.048;8.306;2023-06-22T11:06:32;28.80;92.40
75091;DHT22;63674;48.048;8.306;2023-06-22T11:09:01;28.60;94.70
75091;DHT22;63674;48.048;8.306;2023-06-22T11:11:51;28.30;97.70
75091;DHT22;63674;48.048;8.306;2023-06-22T11:14:23;28.20;95.70
75091;DHT22;63674;48.048;8.306;2023-06-22T11:16:51;28.10;97.80
75091;DHT22;63674;48.048;8.306;2023-06-22T11:19:20;28.10;99.90
75091;DHT22;63674;48.048;8.306;2023-06-22T11:21:49;28.00;99.90
75091;DHT22;63674;48.048;8.306;2023-06-22T11:24:17;28.00;99.90
75091;DHT22;63674;48.048;8.306;2023-06-22T11:26:46;28.00;99.90
75091;DHT22;63674;48.048;8.306;2023-06-22T11:29:14;28.00;94.90
75091;DHT22;63674;48.048;8.306;2023-06-22T11:32:04;27.90;99.90
75091;DHT22;63674;48.048;8.306;2023-06-22T11:34:36;27.70;66.30
75091;DHT22;63674;48.048;8.306;2023-06-22T11:37:05;27.60;86.20
75091;DHT22;63674;48.048;8.306;2023-06-22T11:39:33;27.50;81.20
75091;DHT22;63674;48.048;8.306;2023-06-22T11:42:13;27.50;98.80
75091;DHT22;63674;48.048;8.306;2023-06-22T11:44:42;27.50;99.90
75091;DHT22;63674;48.048;8.306;2023-06-22T11:47:13;27.60;99.00
75091;DHT22;63674;48.048;8.306;2023-06-22T11:49:41;27.70;73.00
75091;DHT22;63674;48.048;8.306;2023-06-22T11:52:10;27.70;54.10
75091;DHT22;63674;48.048;8.306;2023-06-22T11:54:38;27.60;51.10
75091;DHT22;63674;48.048;8.306;2023-06-22T11:57:07;27.60;59.00
75091;DHT22;63674;48.048;8.306;2023-06-22T11:59:36;27.60;71.70
75091;DHT22;63674;48.048;8.306;2023-06-22T12:02:04;27.60;84.80
75091;DHT22;63674;48.048;8.306;2023-06-22T12:04:37;27.50;56.00
75091;DHT22;63674;48.048;8.306;2023-06-22T12:07:05;27.20;49.60
75091;DHT22;63674;48.048;8.306;2023-06-22T12:09:34;27.10;43.90
75091;DHT22;63674;48.048;8.306;2023-06-22T12:12:03;26.90;49.60
75091;DHT22;63674;48.048;8.306;2023-06-22T12:14:32;26.90;47.20
75091;DHT22;63674;48.048;8.306;2023-06-22T12:17:01;26.90;41.60
75091;DHT22;63674;48.048;8.306;2023-06-22T12:19:30;26.90;40.00
75091;DHT22;63674;48.048;8.306;2023-06-22T12:21:59;26.90;52.10
75091;DHT22;63674;48.048;8.306;2023-06-22T12:24:28;26.90;47.40
75091;DHT22;63674;48.048;8.306;2023-06-22T12:26:57;26.80;45.90
75091;DHT22;63674;48.048;8.306;2023-06-22T12:29:26;26.80;52.40
75091;DHT22;63674;48.048;8.306;2023-06-22T12:31:54;26.80;50.50
75091;DHT22;63674;48.048;8.306;2023-06-22T12:34:23;26.80;51.30
75091;DHT22;63674;48.048;8.306;2023-06-22T12:36:51;26.70;42.00
75091;DHT22;63674;48.048;8.306;2023-06-22T12:39:22;26.60;49.10
75091;DHT22;63674;48.048;8.306;2023-06-22T12:41:51;26.50;43.70
75091;DHT22;63674;48.048;8.306;2023-06-22T12:44:20;26.50;46.00
75091;DHT22;63674;48.048;8.306;2023-06-22T12:46:48;26.40;46.50
75091;DHT22;63674;48.048;8.306;2023-06-22T12:49:17;26.30;42.40
75091;DHT22;63674;48.048;8.306;2023-06-22T12:51:46;26.30;44.70
75091;DHT22;63674;48.048;8.306;2023-06-22T12:54:14;26.30;42.20
75091;DHT22;63674;48.048;8.306;2023-06-22T12:56:44;26.30;44.80
75091;DHT22;63674;48.048;8.306;2023-06-22T12:59:13;26.30;53.00
75091;DHT22;63674;48.048;8.306;2023-06-22T13:01:41;26.30;49.00
75091;DHT22;63674;48.048;8.306;2023-06-22T13:04:10;26.40;52.70
75091;DHT22;63674;48.048;8.306;2023-06-22T13:06:41;26.40;53.70
75091;DHT22;63674;48.048;8.306;2023-06-22T13:09:10;26.50;50.10
75091;DHT22;63674;48.048;8.306;2023-06-22T13:11:43;26.50;50.30
75091;DHT22;63674;48.048;8.306;2023-06-22T13:14:12;26.40;47.70
75091;DHT22;63674;48.048;8.306;2023-06-22T13:16:40;26.50;51.10
75091;DHT22;63674;48.048;8.306;2023-06-22T13:19:09;26.40;48.50
75091;DHT22;63674;48.048;8.306;2023-06-22T13:21:37;26.30;53.20
75091;DHT22;63674;48.048;8.306;2023-06-22T13:24:06;26.30;53.30
75091;DHT22;63674;48.048;8.306;2023-06-22T13:26:35;26.20;55.70
75091;DHT22;63674;48.048;8.306;2023-06-22T13:29:05;26.20;57.50
75091;DHT22;63674;48.048;8.306;2023-06-22T13:31:33;26.10;59.40
75091;DHT22;63674;48.048;8.306;2023-06-22T13:34:02;26.10;60.30
75091;DHT22;63674;48.048;8.306;2023-06-22T13:36:31;26.00;61.40
75091;DHT22;63674;48.048;8.306;2023-06-22T13:38:59;25.90;65.60
75091;DHT22;63674;48.048;8.306;2023-06-22T13:41:28;25.90;66.70
75091;DHT22;63674;48.048;8.306;2023-06-22T13:43:56;25.80;64.50
75091;DHT22;63674;48.048;8.306;2023-06-22T13:46:26;25.90;66.10
75091;DHT22;63674;48.048;8.306;2023-06-22T13:48:56;26.00;69.70
75091;DHT22;63674;48.048;8.306;2023-06-22T13:51:24;26.00;67.00
75091;DHT22;63674;48.048;8.306;2023-06-22T13:53:53;25.80;71.70
75091;DHT22;63674;48.048;8.306;2023-06-22T13:56:22;25.80;70.00
75091;DHT22;63674;48.048;8.306;2023-06-22T13:58:50;25.70;74.50
75091;DHT22;63674;48.048;8.306;2023-06-22T14:01:18;25.60;73.00
75091;DHT22;63674;48.048;8.306;2023-06-22T14:03:49;25.40;74.10
75091;DHT22;63674;48.048;8.306;2023-06-22T14:06:17;25.30;87.80
75091;DHT22;63674;48.048;8.306;2023-06-22T14:08:46;25.20;81.50
75091;DHT22;63674;48.048;8.306;2023-06-22T14:11:15;25.20;81.60
75091;DHT22;63674;48.048;8.306;2023-06-22T14:13:43;25.20;83.50
75091;DHT22;63674;48.048;8.306;2023-06-22T14:16:12;25.10;91.30
75091;DHT22;63674;48.048;8.306;2023-06-22T14:18:40;24.90;87.90
75091;DHT22;63674;48.048;8.306;2023-06-22T14:21:10;24.80;90.10
75091;DHT22;63674;48.048;8.306;2023-06-22T14:23:39;24.70;93.40
75091;DHT22;63674;48.048;8.306;2023-06-22T14:26:07;24.80;92.60
75091;DHT22;63674;48.048;8.306;2023-06-22T14:28:36;24.80;91.30
75091;DHT22;63674;48.048;8.306;2023-06-22T14:31:04;24.80;93.00
75091;DHT22;63674;48.048;8.306;2023-06-22T14:33:33;24.80;96.40
75091;DHT22;63674;48.048;8.306;2023-06-22T14:36:01;24.70;92.60
75091;DHT22;63674;48.048;8.306;2023-06-22T14:38:31;24.70;96.00
75091;DHT22;63674;48.048;8.306;2023-06-22T14:41:01;24.70;92.40
75091;DHT22;63674;48.048;8.306;2023-06-22T14:43:44;24.70;94.70
75091;DHT22;63674;48.048;8.306;2023-06-22T14:46:14;24.70;90.70
75091;DHT22;63674;48.048;8.306;2023-06-22T14:48:43;24.60;94.10
75091;DHT22;63674;48.048;8.306;2023-06-22T14:51:12;24.60;95.20
75091;DHT22;63674;48.048;8.306;2023-06-22T14:53:45;24.50;93.30
75091;DHT22;63674;48.048;8.306;2023-06-22T14:56:14;24.40;94.10
75091;DHT22;63674;48.048;8.306;2023-06-22T14:58:44;24.30;92.20
75091;DHT22;63674;48.048;8.306;2023-06-22T15:01:16;24.30;96.90
75091;DHT22;63674;48.048;8.306;2023-06-22T15:03:45;24.40;99.10
75091;DHT22;63674;48.048;8.306;2023-06-22T15:06:14;24.40;97.80
75091;DHT22;63674;48.048;8.306;2023-06-22T15:08:44;24.40;99.40
75091;DHT22;63674;48.048;8.306;2023-06-22T15:11:13;24.40;98.30
75091;DHT22;63674;48.048;8.306;2023-06-22T15:13:42;24.40;99.90
75091;DHT22;63674;48.048;8.306;2023-06-22T15:16:10;24.30;95.90
75091;DHT22;63674;48.048;8.306;2023-06-22T15:18:39;24.20;99.00
75091;DHT22;63674;48.048;8.306;2023-06-22T15:21:08;24.10;98.20
75091;DHT22;63674;48.048;8.306;2023-06-22T15:23:37;24.10;99.90
75091;DHT22;63674;48.048;8.306;2023-06-22T15:26:07;24.00;98.80
75091;DHT22;63674;48.048;8.306;2023-06-22T15:28:35;24.00;97.90
75091;DHT22;63674;48.048;8.306;2023-06-22T15:31:05;23.90;99.70
75091;DHT22;63674;48.048;8.306;2023-06-22T15:33:34;23.90;96.50
75091;DHT22;63674;48.048;8.306;2023-06-22T15:36:04;23.70;96.10
75091;DHT22;63674;48.048;8.306;2023-06-22T15:38:34;23.70;99.90
75091;DHT22;63674;48.048;8.306;2023-06-22T15:41:02;23.60;98.10
75091;DHT22;63674;48.048;8.306;2023-06-22T15:43:32;23.60;98.70
75091;DHT22;63674;48.048;8.306;2023-06-22T15:46:01;23.50;99.90